sensor_id;sensor_type;location;lat;lon;timestamp;P1;durP1;ratioP1;P2;durP2;ratioP2
16403;SDS011;8311;50.158;8.642;2024-01-16T00:02:31;6.40;;;3.30;;
16403;SDS011;8311;50.158;8.642;2024-01-16T00:05:24;6.85;;;4.10;;
16403;SDS011;8311;50.158;8.642;2024-01-16T00:08:17;7.03;;;3.92;;
16403;SDS011;8311;50.158;8.642;2024-01-16T00:11:10;8.55;;;4.40;;
16403;SDS011;8311;50.158;8.642;2024-01-16T00:14:03;9.05;;;3.97;;
16403;SDS011;8311;50.158;8.642;2024-01-16T00:20:42;7.43;;;4.25;;
16403;SDS011;8311;50.158;8.642;2024-01-16T00:23:34;7.65;;;3.42;;
16403;SDS011;8311;50.158;8.642;2024-01-16T00:26:27;7.75;;;4.05;;
16403;SDS011;8311;50.158;8.642;2024-01-16T00:29:20;7.40;;;3.65;;
16403;SDS011;8311;50.158;8.642;2024-01-16T00:35:59;6.65;;;3.20;;
16403;SDS011;8311;50.158;8.642;2024-01-16T00:38:52;8.05;;;4.20;;
16403;SDS011;8311;50.158;8.642;2024-01-16T00:41:45;7.85;;;4.25;;
16403;SDS011;8311;50.158;8.642;2024-01-16T00:44:38;7.68;;;4.28;;
16403;SDS011;8311;50.158;8.642;2024-01-16T00:47:31;7.60;;;3.65;;
16403;SDS011;8311;50.158;8.642;2024-01-16T00:50:25;7.63;;;3.65;;
16403;SDS011;8311;50.158;8.642;2024-01-16T00:57:03;7.93;;;3.80;;
16403;SDS011;8311;50.158;8.642;2024-01-16T00:59:56;5.15;;;3.10;;
16403;SDS011;8311;50.158;8.642;2024-01-16T01:02:50;6.88;;;3.42;;
16403;SDS011;8311;50.158;8.642;2024-01-16T01:05:42;7.32;;;3.67;;
16403;SDS011;8311;50.158;8.642;2024-01-16T01:08:35;5.95;;;3.38;;
16403;SDS011;8311;50.158;8.642;2024-01-16T01:11:28;8.07;;;3.90;;
16403;SDS011;8311;50.158;8.642;2024-01-16T01:14:23;8.23;;;4.18;;
16403;SDS011;8311;50.158;8.642;2024-01-16T01:17:18;6.32;;;3.40;;
16403;SDS011;8311;50.158;8.642;2024-01-16T01:20:13;6.25;;;3.63;;
16403;SDS011;8311;50.158;8.642;2024-01-16T01:23:06;7.85;;;3.50;;
16403;SDS011;8311;50.158;8.642;2024-01-16T01:25:59;6.32;;;3.25;;
16403;SDS011;8311;50.158;8.642;2024-01-16T01:28:53;6.63;;;3.38;;
16403;SDS011;8311;50.158;8.642;2024-01-16T01:31:47;8.05;;;3.45;;
16403;SDS011;8311;50.158;8.642;2024-01-16T01:34:41;8.93;;;3.72;;
16403;SDS011;8311;50.158;8.642;2024-01-16T01:37:34;7.40;;;3.40;;
16403;SDS011;8311;50.158;8.642;2024-01-16T01:40:27;6.85;;;3.28;;
16403;SDS011;8311;50.158;8.642;2024-01-16T01:43:21;6.32;;;3.20;;
16403;SDS011;8311;50.158;8.642;2024-01-16T01:46:17;7.57;;;3.78;;
16403;SDS011;8311;50.158;8.642;2024-01-16T01:49:13;6.60;;;3.35;;
16403;SDS011;8311;50.158;8.642;2024-01-16T01:52:07;6.72;;;3.47;;
16403;SDS011;8311;50.158;8.642;2024-01-16T01:55:02;6.32;;;3.75;;
16403;SDS011;8311;50.158;8.642;2024-01-16T01:57:58;7.45;;;3.20;;
16403;SDS011;8311;50.158;8.642;2024-01-16T02:00:53;7.57;;;3.70;;
16403;SDS011;8311;50.158;8.642;2024-01-16T02:03:46;6.20;;;2.95;;
16403;SDS011;8311;50.158;8.642;2024-01-16T02:06:43;6.57;;;3.38;;
16403;SDS011;8311;50.158;8.642;2024-01-16T02:09:36;6.93;;;3.28;;
16403;SDS011;8311;50.158;8.642;2024-01-16T02:12:31;5.10;;;2.55;;
16403;SDS011;8311;50.158;8.642;2024-01-16T02:15:25;4.85;;;2.85;;
16403;SDS011;8311;50.158;8.642;2024-01-16T02:22:04;6.20;;;3.38;;
16403;SDS011;8311;50.158;8.642;2024-01-16T02:25:02;6.35;;;3.33;;
16403;SDS011;8311;50.158;8.642;2024-01-16T02:27:55;5.72;;;2.78;;
16403;SDS011;8311;50.158;8.642;2024-01-16T02:30:49;6.20;;;3.03;;
16403;SDS011;8311;50.158;8.642;2024-01-16T02:37:25;5.65;;;2.95;;
16403;SDS011;8311;50.158;8.642;2024-01-16T02:40:20;7.03;;;3.00;;
16403;SDS011;8311;50.158;8.642;2024-01-16T02:43:12;5.68;;;2.97;;
16403;SDS011;8311;50.158;8.642;2024-01-16T02:46:05;5.55;;;3.03;;
16403;SDS011;8311;50.158;8.642;2024-01-16T02:48:59;6.57;;;3.22;;
16403;SDS011;8311;50.158;8.642;2024-01-16T02:51:53;5.45;;;3.05;;
16403;SDS011;8311;50.158;8.642;2024-01-16T02:54:47;6.72;;;3.20;;
16403;SDS011;8311;50.158;8.642;2024-01-16T02:57:41;5.57;;;3.13;;
16403;SDS011;8311;50.158;8.642;2024-01-16T03:00:34;6.63;;;3.22;;
16403;SDS011;8311;50.158;8.642;2024-01-16T03:03:28;5.60;;;2.80;;
16403;SDS011;8311;50.158;8.642;2024-01-16T03:06:22;5.55;;;2.80;;
16403;SDS011;8311;50.158;8.642;2024-01-16T03:09:15;6.93;;;3.38;;
16403;SDS011;8311;50.158;8.642;2024-01-16T03:12:10;7.03;;;3.42;;
16403;SDS011;8311;50.158;8.642;2024-01-16T03:15:04;6.00;;;3.05;;
16403;SDS011;8311;50.158;8.642;2024-01-16T03:17:58;5.40;;;2.60;;
16403;SDS011;8311;50.158;8.642;2024-01-16T03:20:52;5.18;;;2.78;;
16403;SDS011;8311;50.158;8.642;2024-01-16T03:23:46;6.65;;;3.10;;
16403;SDS011;8311;50.158;8.642;2024-01-16T03:26:39;8.82;;;3.47;;
16403;SDS011;8311;50.158;8.642;2024-01-16T03:29:34;6.70;;;2.90;;
16403;SDS011;8311;50.158;8.642;2024-01-16T03:32:28;5.55;;;2.70;;
16403;SDS011;8311;50.158;8.642;2024-01-16T03:35:22;5.85;;;2.85;;
16403;SDS011;8311;50.158;8.642;2024-01-16T03:38:14;5.88;;;2.70;;
16403;SDS011;8311;50.158;8.642;2024-01-16T03:41:07;5.45;;;2.90;;
16403;SDS011;8311;50.158;8.642;2024-01-16T03:44:00;5.70;;;2.92;;
16403;SDS011;8311;50.158;8.642;2024-01-16T03:50:39;5.32;;;2.90;;
16403;SDS011;8311;50.158;8.642;2024-01-16T03:53:35;5.38;;;2.90;;
16403;SDS011;8311;50.158;8.642;2024-01-16T03:56:28;5.47;;;3.22;;
16403;SDS011;8311;50.158;8.642;2024-01-16T03:59:22;4.93;;;2.47;;
16403;SDS011;8311;50.158;8.642;2024-01-16T04:02:15;4.22;;;2.42;;
16403;SDS011;8311;50.158;8.642;2024-01-16T04:05:08;4.45;;;2.22;;
16403;SDS011;8311;50.158;8.642;2024-01-16T04:08:03;6.28;;;3.38;;
16403;SDS011;8311;50.158;8.642;2024-01-16T04:10:56;4.93;;;2.85;;
16403;SDS011;8311;50.158;8.642;2024-01-16T04:13:49;4.72;;;2.70;;
16403;SDS011;8311;50.158;8.642;2024-01-16T04:16:42;5.68;;;2.60;;
16403;SDS011;8311;50.158;8.642;2024-01-16T04:19:36;6.25;;;2.70;;
16403;SDS011;8311;50.158;8.642;2024-01-16T04:22:29;4.75;;;2.67;;
16403;SDS011;8311;50.158;8.642;2024-01-16T04:25:23;5.53;;;2.92;;
16403;SDS011;8311;50.158;8.642;2024-01-16T04:28:16;5.75;;;2.90;;
16403;SDS011;8311;50.158;8.642;2024-01-16T04:31:09;4.15;;;2.30;;
16403;SDS011;8311;50.158;8.642;2024-01-16T04:34:04;5.45;;;2.72;;
16403;SDS011;8311;50.158;8.642;2024-01-16T04:36:57;5.93;;;2.45;;
16403;SDS011;8311;50.158;8.642;2024-01-16T04:39:49;4.28;;;2.15;;
16403;SDS011;8311;50.158;8.642;2024-01-16T04:42:44;4.65;;;2.60;;
16403;SDS011;8311;50.158;8.642;2024-01-16T04:45:36;3.42;;;2.17;;
16403;SDS011;8311;50.158;8.642;2024-01-16T04:52:14;5.70;;;2.50;;
16403;SDS011;8311;50.158;8.642;2024-01-16T04:55:06;6.18;;;3.03;;
16403;SDS011;8311;50.158;8.642;2024-01-16T04:58:01;4.93;;;1.95;;
16403;SDS011;8311;50.158;8.642;2024-01-16T05:00:55;4.68;;;2.35;;
16403;SDS011;8311;50.158;8.642;2024-01-16T05:07:33;4.43;;;2.40;;
16403;SDS011;8311;50.158;8.642;2024-01-16T05:10:26;4.80;;;2.55;;
16403;SDS011;8311;50.158;8.642;2024-01-16T05:13:21;5.07;;;2.63;;
16403;SDS011;8311;50.158;8.642;2024-01-16T05:16:13;5.07;;;2.42;;
16403;SDS011;8311;50.158;8.642;2024-01-16T05:22:51;5.53;;;2.40;;
16403;SDS011;8311;50.158;8.642;2024-01-16T05:25:44;4.57;;;2.10;;
16403;SDS011;8311;50.158;8.642;2024-01-16T05:28:38;4.75;;;2.35;;
16403;SDS011;8311;50.158;8.642;2024-01-16T05:31:32;3.65;;;2.17;;
16403;SDS011;8311;50.158;8.642;2024-01-16T05:34:25;4.25;;;2.10;;
16403;SDS011;8311;50.158;8.642;2024-01-16T05:37:19;5.22;;;2.45;;
16403;SDS011;8311;50.158;8.642;2024-01-16T05:40:12;4.38;;;2.45;;
16403;SDS011;8311;50.158;8.642;2024-01-16T05:43:04;4.25;;;2.25;;
16403;SDS011;8311;50.158;8.642;2024-01-16T05:49:21;3.75;;;2.25;;
16403;SDS011;8311;50.158;8.642;2024-01-16T05:52:14;4.70;;;2.42;;
16403;SDS011;8311;50.158;8.642;2024-01-16T05:55:07;4.22;;;2.30;;
16403;SDS011;8311;50.158;8.642;2024-01-16T05:58:01;3.30;;;1.80;;
16403;SDS011;8311;50.158;8.642;2024-01-16T06:00:53;5.63;;;2.70;;
16403;SDS011;8311;50.158;8.642;2024-01-16T06:03:48;4.15;;;2.17;;
16403;SDS011;8311;50.158;8.642;2024-01-16T06:06:42;3.80;;;2.20;;
16403;SDS011;8311;50.158;8.642;2024-01-16T06:09:38;5.82;;;2.55;;
16403;SDS011;8311;50.158;8.642;2024-01-16T06:12:31;5.13;;;2.47;;
16403;SDS011;8311;50.158;8.642;2024-01-16T06:15:27;3.72;;;2.00;;
16403;SDS011;8311;50.158;8.642;2024-01-16T06:18:20;4.18;;;2.00;;
16403;SDS011;8311;50.158;8.642;2024-01-16T06:21:14;5.28;;;2.28;;
16403;SDS011;8311;50.158;8.642;2024-01-16T06:24:08;3.75;;;2.15;;
16403;SDS011;8311;50.158;8.642;2024-01-16T06:27:04;4.20;;;2.13;;
16403;SDS011;8311;50.158;8.642;2024-01-16T06:29:58;3.35;;;1.85;;
16403;SDS011;8311;50.158;8.642;2024-01-16T06:32:50;4.88;;;2.22;;
16403;SDS011;8311;50.158;8.642;2024-01-16T06:35:43;3.63;;;2.10;;
16403;SDS011;8311;50.158;8.642;2024-01-16T06:38:39;4.10;;;2.30;;
16403;SDS011;8311;50.158;8.642;2024-01-16T06:41:32;4.07;;;2.20;;
16403;SDS011;8311;50.158;8.642;2024-01-16T06:44:26;4.70;;;2.35;;
16403;SDS011;8311;50.158;8.642;2024-01-16T06:47:18;4.28;;;1.85;;
16403;SDS011;8311;50.158;8.642;2024-01-16T06:50:12;4.20;;;1.90;;
16403;SDS011;8311;50.158;8.642;2024-01-16T06:53:04;5.60;;;2.25;;
16403;SDS011;8311;50.158;8.642;2024-01-16T06:55:59;4.57;;;2.13;;
16403;SDS011;8311;50.158;8.642;2024-01-16T06:58:53;3.47;;;2.13;;
16403;SDS011;8311;50.158;8.642;2024-01-16T07:01:46;5.15;;;2.10;;
16403;SDS011;8311;50.158;8.642;2024-01-16T07:04:38;4.30;;;2.33;;
16403;SDS011;8311;50.158;8.642;2024-01-16T07:07:32;4.10;;;2.15;;
16403;SDS011;8311;50.158;8.642;2024-01-16T07:10:25;4.45;;;2.25;;
16403;SDS011;8311;50.158;8.642;2024-01-16T07:13:19;2.65;;;1.83;;
16403;SDS011;8311;50.158;8.642;2024-01-16T07:16:12;3.20;;;1.80;;
16403;SDS011;8311;50.158;8.642;2024-01-16T07:19:06;3.80;;;1.70;;
16403;SDS011;8311;50.158;8.642;2024-01-16T07:22:00;3.55;;;1.83;;
16403;SDS011;8311;50.158;8.642;2024-01-16T07:24:53;3.78;;;1.75;;
16403;SDS011;8311;50.158;8.642;2024-01-16T07:27:46;3.50;;;1.92;;
16403;SDS011;8311;50.158;8.642;2024-01-16T07:30:42;4.20;;;1.92;;
16403;SDS011;8311;50.158;8.642;2024-01-16T07:33:34;4.53;;;2.15;;
16403;SDS011;8311;50.158;8.642;2024-01-16T07:36:28;3.47;;;1.63;;
16403;SDS011;8311;50.158;8.642;2024-01-16T07:39:22;3.83;;;1.77;;
16403;SDS011;8311;50.158;8.642;2024-01-16T07:42:15;4.10;;;1.95;;
16403;SDS011;8311;50.158;8.642;2024-01-16T07:45:08;5.10;;;2.20;;
16403;SDS011;8311;50.158;8.642;2024-01-16T07:48:04;4.18;;;1.95;;
16403;SDS011;8311;50.158;8.642;2024-01-16T07:50:56;3.70;;;1.88;;
16403;SDS011;8311;50.158;8.642;2024-01-16T07:53:51;3.55;;;1.95;;
16403;SDS011;8311;50.158;8.642;2024-01-16T07:56:56;3.80;;;1.92;;
16403;SDS011;8311;50.158;8.642;2024-01-16T07:59:48;4.85;;;2.13;;
16403;SDS011;8311;50.158;8.642;2024-01-16T08:02:42;4.07;;;2.13;;
16403;SDS011;8311;50.158;8.642;2024-01-16T08:05:37;4.18;;;1.88;;
16403;SDS011;8311;50.158;8.642;2024-01-16T08:08:31;3.65;;;2.00;;
16403;SDS011;8311;50.158;8.642;2024-01-16T08:11:26;4.85;;;1.90;;
16403;SDS011;8311;50.158;8.642;2024-01-16T08:14:19;3.78;;;2.20;;
16403;SDS011;8311;50.158;8.642;2024-01-16T08:17:12;3.35;;;1.70;;
16403;SDS011;8311;50.158;8.642;2024-01-16T08:20:05;4.72;;;2.38;;
16403;SDS011;8311;50.158;8.642;2024-01-16T08:23:02;3.35;;;1.70;;
16403;SDS011;8311;50.158;8.642;2024-01-16T08:25:56;3.42;;;1.77;;
16403;SDS011;8311;50.158;8.642;2024-01-16T08:28:49;3.17;;;1.75;;
16403;SDS011;8311;50.158;8.642;2024-01-16T08:31:43;5.13;;;2.15;;
16403;SDS011;8311;50.158;8.642;2024-01-16T08:34:36;3.75;;;1.80;;
16403;SDS011;8311;50.158;8.642;2024-01-16T08:37:29;4.03;;;2.03;;
16403;SDS011;8311;50.158;8.642;2024-01-16T08:40:23;4.20;;;1.95;;
16403;SDS011;8311;50.158;8.642;2024-01-16T08:43:17;2.13;;;1.40;;
16403;SDS011;8311;50.158;8.642;2024-01-16T08:46:10;3.28;;;1.77;;
16403;SDS011;8311;50.158;8.642;2024-01-16T08:49:03;4.25;;;1.88;;
16403;SDS011;8311;50.158;8.642;2024-01-16T08:51:55;3.88;;;2.03;;
16403;SDS011;8311;50.158;8.642;2024-01-16T08:54:49;3.67;;;1.95;;
16403;SDS011;8311;50.158;8.642;2024-01-16T08:57:43;3.28;;;1.60;;
16403;SDS011;8311;50.158;8.642;2024-01-16T09:00:36;3.78;;;2.00;;
16403;SDS011;8311;50.158;8.642;2024-01-16T09:03:29;4.65;;;2.20;;
16403;SDS011;8311;50.158;8.642;2024-01-16T09:06:23;3.20;;;1.90;;
16403;SDS011;8311;50.158;8.642;2024-01-16T09:09:16;3.83;;;1.88;;
16403;SDS011;8311;50.158;8.642;2024-01-16T09:12:09;2.70;;;1.77;;
16403;SDS011;8311;50.158;8.642;2024-01-16T09:15:04;3.13;;;1.98;;
16403;SDS011;8311;50.158;8.642;2024-01-16T09:17:58;3.92;;;1.77;;
16403;SDS011;8311;50.158;8.642;2024-01-16T09:20:51;3.58;;;1.90;;
16403;SDS011;8311;50.158;8.642;2024-01-16T09:23:44;3.40;;;1.70;;
16403;SDS011;8311;50.158;8.642;2024-01-16T09:26:37;3.60;;;1.90;;
16403;SDS011;8311;50.158;8.642;2024-01-16T09:33:15;4.05;;;1.70;;
16403;SDS011;8311;50.158;8.642;2024-01-16T09:36:09;3.40;;;1.60;;
16403;SDS011;8311;50.158;8.642;2024-01-16T09:39:02;3.90;;;2.03;;
16403;SDS011;8311;50.158;8.642;2024-01-16T09:41:59;2.67;;;1.50;;
16403;SDS011;8311;50.158;8.642;2024-01-16T09:44:53;3.30;;;1.70;;
16403;SDS011;8311;50.158;8.642;2024-01-16T09:47:49;3.00;;;1.45;;
16403;SDS011;8311;50.158;8.642;2024-01-16T09:50:45;4.00;;;1.90;;
16403;SDS011;8311;50.158;8.642;2024-01-16T09:53:39;3.70;;;1.75;;
16403;SDS011;8311;50.158;8.642;2024-01-16T09:56:32;3.80;;;1.92;;
16403;SDS011;8311;50.158;8.642;2024-01-16T09:59:28;3.65;;;1.42;;
16403;SDS011;8311;50.158;8.642;2024-01-16T10:06:08;3.03;;;1.52;;
16403;SDS011;8311;50.158;8.642;2024-01-16T10:09:03;4.30;;;1.98;;
16403;SDS011;8311;50.158;8.642;2024-01-16T10:11:58;3.33;;;1.40;;
16403;SDS011;8311;50.158;8.642;2024-01-16T10:14:51;2.45;;;1.50;;
16403;SDS011;8311;50.158;8.642;2024-01-16T10:17:46;2.90;;;1.80;;
16403;SDS011;8311;50.158;8.642;2024-01-16T10:20:39;3.20;;;1.48;;
16403;SDS011;8311;50.158;8.642;2024-01-16T10:23:33;2.83;;;1.70;;
16403;SDS011;8311;50.158;8.642;2024-01-16T10:26:28;3.20;;;1.80;;
16403;SDS011;8311;50.158;8.642;2024-01-16T10:29:21;3.25;;;1.58;;
16403;SDS011;8311;50.158;8.642;2024-01-16T10:32:26;2.58;;;1.70;;
16403;SDS011;8311;50.158;8.642;2024-01-16T10:35:21;4.40;;;2.00;;
16403;SDS011;8311;50.158;8.642;2024-01-16T10:38:19;2.33;;;1.23;;
16403;SDS011;8311;50.158;8.642;2024-01-16T10:41:15;2.75;;;1.65;;
16403;SDS011;8311;50.158;8.642;2024-01-16T10:44:09;4.63;;;1.92;;
16403;SDS011;8311;50.158;8.642;2024-01-16T10:47:11;3.38;;;1.52;;
16403;SDS011;8311;50.158;8.642;2024-01-16T10:50:04;2.45;;;1.40;;
16403;SDS011;8311;50.158;8.642;2024-01-16T10:53:03;3.10;;;1.52;;
16403;SDS011;8311;50.158;8.642;2024-01-16T10:55:57;2.65;;;1.60;;
16403;SDS011;8311;50.158;8.642;2024-01-16T10:58:55;2.28;;;1.45;;
16403;SDS011;8311;50.158;8.642;2024-01-16T11:02:04;2.60;;;1.40;;
16403;SDS011;8311;50.158;8.642;2024-01-16T11:05:02;2.22;;;1.50;;
16403;SDS011;8311;50.158;8.642;2024-01-16T11:07:57;3.10;;;1.50;;
16403;SDS011;8311;50.158;8.642;2024-01-16T11:10:52;3.38;;;1.83;;
16403;SDS011;8311;50.158;8.642;2024-01-16T11:13:45;2.47;;;1.40;;
16403;SDS011;8311;50.158;8.642;2024-01-16T11:16:40;3.22;;;1.80;;
16403;SDS011;8311;50.158;8.642;2024-01-16T11:19:34;3.67;;;1.58;;
16403;SDS011;8311;50.158;8.642;2024-01-16T11:22:47;4.43;;;1.70;;
16403;SDS011;8311;50.158;8.642;2024-01-16T11:25:41;3.85;;;1.77;;
16403;SDS011;8311;50.158;8.642;2024-01-16T11:28:34;2.80;;;1.35;;
16403;SDS011;8311;50.158;8.642;2024-01-16T11:31:27;2.75;;;1.38;;
16403;SDS011;8311;50.158;8.642;2024-01-16T11:37:50;2.78;;;1.45;;
16403;SDS011;8311;50.158;8.642;2024-01-16T11:40:44;2.35;;;1.40;;
16403;SDS011;8311;50.158;8.642;2024-01-16T11:43:39;4.35;;;2.03;;
16403;SDS011;8311;50.158;8.642;2024-01-16T11:46:40;1.95;;;1.45;;
16403;SDS011;8311;50.158;8.642;2024-01-16T11:50:09;2.35;;;1.38;;
16403;SDS011;8311;50.158;8.642;2024-01-16T11:53:03;2.20;;;1.40;;
16403;SDS011;8311;50.158;8.642;2024-01-16T11:56:00;2.33;;;1.50;;
16403;SDS011;8311;50.158;8.642;2024-01-16T11:59:42;2.22;;;1.17;;
16403;SDS011;8311;50.158;8.642;2024-01-16T12:03:04;2.03;;;1.30;;
16403;SDS011;8311;50.158;8.642;2024-01-16T12:06:03;3.17;;;1.52;;
16403;SDS011;8311;50.158;8.642;2024-01-16T12:12:43;3.35;;;1.52;;
16403;SDS011;8311;50.158;8.642;2024-01-16T12:15:37;2.70;;;1.60;;
16403;SDS011;8311;50.158;8.642;2024-01-16T12:18:30;2.63;;;1.40;;
16403;SDS011;8311;50.158;8.642;2024-01-16T12:21:36;2.22;;;1.50;;
16403;SDS011;8311;50.158;8.642;2024-01-16T12:24:32;2.20;;;1.38;;
16403;SDS011;8311;50.158;8.642;2024-01-16T12:27:25;2.35;;;1.23;;
16403;SDS011;8311;50.158;8.642;2024-01-16T12:30:18;1.95;;;1.40;;
16403;SDS011;8311;50.158;8.642;2024-01-16T12:33:14;2.17;;;1.25;;
16403;SDS011;8311;50.158;8.642;2024-01-16T12:36:08;2.13;;;1.40;;
16403;SDS011;8311;50.158;8.642;2024-01-16T12:39:03;3.63;;;1.63;;
16403;SDS011;8311;50.158;8.642;2024-01-16T12:41:57;2.63;;;1.23;;
16403;SDS011;8311;50.158;8.642;2024-01-16T12:44:51;4.00;;;1.70;;
16403;SDS011;8311;50.158;8.642;2024-01-16T12:47:49;2.45;;;1.13;;
16403;SDS011;8311;50.158;8.642;2024-01-16T12:50:45;1.55;;;1.10;;
16403;SDS011;8311;50.158;8.642;2024-01-16T12:53:38;1.90;;;1.13;;
16403;SDS011;8311;50.158;8.642;2024-01-16T12:56:33;3.33;;;1.20;;
16403;SDS011;8311;50.158;8.642;2024-01-16T12:59:29;2.72;;;1.52;;
16403;SDS011;8311;50.158;8.642;2024-01-16T13:02:23;2.75;;;1.45;;
16403;SDS011;8311;50.158;8.642;2024-01-16T13:05:17;3.65;;;1.70;;
16403;SDS011;8311;50.158;8.642;2024-01-16T13:08:17;2.70;;;1.30;;
16403;SDS011;8311;50.158;8.642;2024-01-16T13:14:56;2.60;;;1.45;;
16403;SDS011;8311;50.158;8.642;2024-01-16T13:17:50;1.50;;;1.15;;
16403;SDS011;8311;50.158;8.642;2024-01-16T13:20:43;2.40;;;1.42;;
16403;SDS011;8311;50.158;8.642;2024-01-16T13:23:36;4.35;;;1.40;;
16403;SDS011;8311;50.158;8.642;2024-01-16T13:26:29;2.90;;;1.50;;
16403;SDS011;8311;50.158;8.642;2024-01-16T13:29:23;2.75;;;1.48;;
16403;SDS011;8311;50.158;8.642;2024-01-16T13:36:02;2.15;;;1.30;;
16403;SDS011;8311;50.158;8.642;2024-01-16T13:38:56;3.10;;;1.38;;
16403;SDS011;8311;50.158;8.642;2024-01-16T13:41:49;2.35;;;1.30;;
16403;SDS011;8311;50.158;8.642;2024-01-16T13:44:42;2.58;;;1.50;;
16403;SDS011;8311;50.158;8.642;2024-01-16T13:47:35;2.42;;;1.20;;
16403;SDS011;8311;50.158;8.642;2024-01-16T13:50:31;1.73;;;1.13;;
16403;SDS011;8311;50.158;8.642;2024-01-16T13:57:10;2.58;;;1.40;;
16403;SDS011;8311;50.158;8.642;2024-01-16T14:00:05;2.55;;;1.20;;
16403;SDS011;8311;50.158;8.642;2024-01-16T14:02:59;2.20;;;1.10;;
16403;SDS011;8311;50.158;8.642;2024-01-16T14:05:55;2.58;;;1.20;;
16403;SDS011;8311;50.158;8.642;2024-01-16T14:08:49;2.28;;;1.15;;
16403;SDS011;8311;50.158;8.642;2024-01-16T14:11:42;2.35;;;1.55;;
16403;SDS011;8311;50.158;8.642;2024-01-16T14:14:36;2.20;;;1.00;;
16403;SDS011;8311;50.158;8.642;2024-01-16T14:17:30;2.22;;;1.20;;
16403;SDS011;8311;50.158;8.642;2024-01-16T14:20:25;1.73;;;1.20;;
16403;SDS011;8311;50.158;8.642;2024-01-16T14:23:19;2.40;;;1.33;;
16403;SDS011;8311;50.158;8.642;2024-01-16T14:26:12;1.55;;;1.02;;
16403;SDS011;8311;50.158;8.642;2024-01-16T14:29:07;1.60;;;1.02;;
16403;SDS011;8311;50.158;8.642;2024-01-16T14:35:45;1.40;;;1.10;;
16403;SDS011;8311;50.158;8.642;2024-01-16T14:38:39;2.25;;;1.20;;
16403;SDS011;8311;50.158;8.642;2024-01-16T14:41:33;2.08;;;1.33;;
16403;SDS011;8311;50.158;8.642;2024-01-16T14:44:26;1.92;;;1.02;;
16403;SDS011;8311;50.158;8.642;2024-01-16T14:47:19;2.13;;;1.30;;
16403;SDS011;8311;50.158;8.642;2024-01-16T14:50:12;2.30;;;1.20;;
16403;SDS011;8311;50.158;8.642;2024-01-16T14:53:09;1.98;;;1.20;;
16403;SDS011;8311;50.158;8.642;2024-01-16T14:56:04;3.40;;;1.30;;
16403;SDS011;8311;50.158;8.642;2024-01-16T14:58:57;1.88;;;1.20;;
16403;SDS011;8311;50.158;8.642;2024-01-16T15:01:51;2.50;;;1.38;;
16403;SDS011;8311;50.158;8.642;2024-01-16T15:04:45;1.38;;;1.10;;
16403;SDS011;8311;50.158;8.642;2024-01-16T15:07:39;2.22;;;1.38;;
16403;SDS011;8311;50.158;8.642;2024-01-16T15:10:35;1.70;;;1.00;;
16403;SDS011;8311;50.158;8.642;2024-01-16T15:13:29;2.00;;;1.27;;
16403;SDS011;8311;50.158;8.642;2024-01-16T15:16:22;1.52;;;1.05;;
16403;SDS011;8311;50.158;8.642;2024-01-16T15:19:16;2.15;;;1.20;;
16403;SDS011;8311;50.158;8.642;2024-01-16T15:22:10;2.15;;;1.00;;
16403;SDS011;8311;50.158;8.642;2024-01-16T15:25:03;3.25;;;1.33;;
16403;SDS011;8311;50.158;8.642;2024-01-16T15:27:58;2.30;;;1.05;;
16403;SDS011;8311;50.158;8.642;2024-01-16T15:30:51;2.20;;;0.95;;
16403;SDS011;8311;50.158;8.642;2024-01-16T15:33:45;1.73;;;1.13;;
16403;SDS011;8311;50.158;8.642;2024-01-16T15:36:38;1.67;;;0.95;;
16403;SDS011;8311;50.158;8.642;2024-01-16T15:39:31;2.92;;;1.20;;
16403;SDS011;8311;50.158;8.642;2024-01-16T15:42:24;1.77;;;1.05;;
16403;SDS011;8311;50.158;8.642;2024-01-16T15:45:19;1.63;;;1.00;;
16403;SDS011;8311;50.158;8.642;2024-01-16T15:48:17;1.75;;;1.10;;
16403;SDS011;8311;50.158;8.642;2024-01-16T15:51:10;2.13;;;1.20;;
16403;SDS011;8311;50.158;8.642;2024-01-16T15:54:04;2.30;;;1.42;;
16403;SDS011;8311;50.158;8.642;2024-01-16T15:56:58;1.98;;;1.10;;
16403;SDS011;8311;50.158;8.642;2024-01-16T15:59:51;2.17;;;1.20;;
16403;SDS011;8311;50.158;8.642;2024-01-16T16:02:47;2.47;;;1.13;;
16403;SDS011;8311;50.158;8.642;2024-01-16T16:05:41;2.00;;;1.00;;
16403;SDS011;8311;50.158;8.642;2024-01-16T16:08:35;2.58;;;1.30;;
16403;SDS011;8311;50.158;8.642;2024-01-16T16:11:32;2.03;;;1.10;;
16403;SDS011;8311;50.158;8.642;2024-01-16T16:14:27;2.25;;;1.35;;
16403;SDS011;8311;50.158;8.642;2024-01-16T16:17:22;1.38;;;1.00;;
16403;SDS011;8311;50.158;8.642;2024-01-16T16:20:17;1.10;;;1.00;;
16403;SDS011;8311;50.158;8.642;2024-01-16T16:23:15;1.90;;;1.00;;
16403;SDS011;8311;50.158;8.642;2024-01-16T16:26:08;1.65;;;1.00;;
16403;SDS011;8311;50.158;8.642;2024-01-16T16:29:01;2.17;;;1.23;;
16403;SDS011;8311;50.158;8.642;2024-01-16T16:35:41;1.33;;;0.90;;
16403;SDS011;8311;50.158;8.642;2024-01-16T16:38:35;1.80;;;1.00;;
16403;SDS011;8311;50.158;8.642;2024-01-16T16:41:32;2.33;;;1.20;;
16403;SDS011;8311;50.158;8.642;2024-01-16T16:44:29;2.13;;;1.00;;
16403;SDS011;8311;50.158;8.642;2024-01-16T16:47:22;2.17;;;1.02;;
16403;SDS011;8311;50.158;8.642;2024-01-16T16:50:15;2.58;;;1.13;;
16403;SDS011;8311;50.158;8.642;2024-01-16T16:56:52;1.60;;;0.88;;
16403;SDS011;8311;50.158;8.642;2024-01-16T16:59:46;1.60;;;0.80;;
16403;SDS011;8311;50.158;8.642;2024-01-16T17:02:40;1.23;;;0.98;;
16403;SDS011;8311;50.158;8.642;2024-01-16T17:05:33;1.85;;;0.95;;
16403;SDS011;8311;50.158;8.642;2024-01-16T17:08:26;1.85;;;1.13;;
16403;SDS011;8311;50.158;8.642;2024-01-16T17:11:21;1.35;;;0.90;;
16403;SDS011;8311;50.158;8.642;2024-01-16T17:14:16;2.00;;;1.17;;
16403;SDS011;8311;50.158;8.642;2024-01-16T17:17:10;1.92;;;1.05;;
16403;SDS011;8311;50.158;8.642;2024-01-16T17:20:04;1.55;;;1.00;;
16403;SDS011;8311;50.158;8.642;2024-01-16T17:22:58;2.13;;;1.10;;
16403;SDS011;8311;50.158;8.642;2024-01-16T17:25:51;2.88;;;1.17;;
16403;SDS011;8311;50.158;8.642;2024-01-16T17:28:45;0.98;;;0.60;;
16403;SDS011;8311;50.158;8.642;2024-01-16T17:31:40;1.50;;;0.82;;
16403;SDS011;8311;50.158;8.642;2024-01-16T17:34:33;1.65;;;1.08;;
16403;SDS011;8311;50.158;8.642;2024-01-16T17:41:10;1.40;;;0.90;;
16403;SDS011;8311;50.158;8.642;2024-01-16T17:44:03;2.33;;;1.05;;
16403;SDS011;8311;50.158;8.642;2024-01-16T17:46:59;1.45;;;1.10;;
16403;SDS011;8311;50.158;8.642;2024-01-16T17:49:52;2.10;;;1.02;;
16403;SDS011;8311;50.158;8.642;2024-01-16T17:52:45;1.83;;;1.15;;
16403;SDS011;8311;50.158;8.642;2024-01-16T17:55:38;1.77;;;0.95;;
16403;SDS011;8311;50.158;8.642;2024-01-16T17:58:31;2.45;;;1.20;;
16403;SDS011;8311;50.158;8.642;2024-01-16T18:01:24;1.30;;;0.82;;
16403;SDS011;8311;50.158;8.642;2024-01-16T18:04:18;1.92;;;1.00;;
16403;SDS011;8311;50.158;8.642;2024-01-16T18:07:12;2.22;;;1.20;;
16403;SDS011;8311;50.158;8.642;2024-01-16T18:10:07;1.65;;;1.00;;
16403;SDS011;8311;50.158;8.642;2024-01-16T18:13:01;1.15;;;0.90;;
16403;SDS011;8311;50.158;8.642;2024-01-16T18:15:57;1.38;;;1.00;;
16403;SDS011;8311;50.158;8.642;2024-01-16T18:18:55;1.58;;;0.90;;
16403;SDS011;8311;50.158;8.642;2024-01-16T18:21:50;1.70;;;1.00;;
16403;SDS011;8311;50.158;8.642;2024-01-16T18:24:43;1.35;;;1.08;;
16403;SDS011;8311;50.158;8.642;2024-01-16T18:27:36;1.63;;;0.95;;
16403;SDS011;8311;50.158;8.642;2024-01-16T18:30:30;1.75;;;1.00;;
16403;SDS011;8311;50.158;8.642;2024-01-16T18:33:24;1.50;;;0.90;;
16403;SDS011;8311;50.158;8.642;2024-01-16T18:36:18;1.50;;;1.00;;
16403;SDS011;8311;50.158;8.642;2024-01-16T18:39:12;1.35;;;0.95;;
16403;SDS011;8311;50.158;8.642;2024-01-16T18:42:06;1.30;;;0.80;;
16403;SDS011;8311;50.158;8.642;2024-01-16T18:44:59;1.58;;;1.00;;
16403;SDS011;8311;50.158;8.642;2024-01-16T18:47:52;2.08;;;1.10;;
16403;SDS011;8311;50.158;8.642;2024-01-16T18:50:46;1.60;;;0.95;;
16403;SDS011;8311;50.158;8.642;2024-01-16T18:53:42;3.17;;;1.35;;
16403;SDS011;8311;50.158;8.642;2024-01-16T19:00:20;1.75;;;0.82;;
16403;SDS011;8311;50.158;8.642;2024-01-16T19:03:13;1.73;;;1.10;;
16403;SDS011;8311;50.158;8.642;2024-01-16T19:06:08;2.22;;;0.98;;
16403;SDS011;8311;50.158;8.642;2024-01-16T19:09:04;1.75;;;0.90;;